sensor_id;sensor_type;location;lat;lon;timestamp;P1;durP1;ratioP1;P2;durP2;ratioP2
27113;SDS011;14648;49.730;8.614;2023-02-28T00:01:09;4.23;;;2.30;;
27113;SDS011;14648;49.730;8.614;2023-02-28T00:03:39;2.37;;;2.17;;
27113;SDS011;14648;49.730;8.614;2023-02-28T00:06:05;3.30;;;2.47;;
27113;SDS011;14648;49.730;8.614;2023-02-28T00:08:32;2.90;;;1.93;;
27113;SDS011;14648;49.730;8.614;2023-02-28T00:11:02;2.73;;;1.83;;
27113;SDS011;14648;49.730;8.614;2023-02-28T00:13:30;2.63;;;2.30;;
27113;SDS011;14648;49.730;8.614;2023-02-28T00:16:00;3.37;;;2.43;;
27113;SDS011;14648;49.730;8.614;2023-02-28T00:18:38;1.60;;;1.50;;
27113;SDS011;14648;49.730;8.614;2023-02-28T00:21:04;1.57;;;1.47;;
27113;SDS011;14648;49.730;8.614;2023-02-28T00:23:31;2.60;;;2.00;;
27113;SDS011;14648;49.730;8.614;2023-02-28T00:25:57;2.90;;;2.30;;
27113;SDS011;14648;49.730;8.614;2023-02-28T00:28:23;3.50;;;2.30;;
27113;SDS011;14648;49.730;8.614;2023-02-28T00:30:49;1.77;;;1.67;;
27113;SDS011;14648;49.730;8.614;2023-02-28T00:33:15;3.33;;;2.37;;
27113;SDS011;14648;49.730;8.614;2023-02-28T00:35:41;2.00;;;1.57;;
27113;SDS011;14648;49.730;8.614;2023-02-28T00:38:06;2.20;;;2.00;;
27113;SDS011;14648;49.730;8.614;2023-02-28T00:40:32;2.00;;;1.57;;
27113;SDS011;14648;49.730;8.614;2023-02-28T00:42:58;3.20;;;2.10;;
27113;SDS011;14648;49.730;8.614;2023-02-28T00:45:24;2.20;;;2.00;;
27113;SDS011;14648;49.730;8.614;2023-02-28T00:47:49;2.70;;;2.03;;
27113;SDS011;14648;49.730;8.614;2023-02-28T00:50:19;3.60;;;3.30;;
27113;SDS011;14648;49.730;8.614;2023-02-28T00:52:45;1.93;;;1.70;;
27113;SDS011;14648;49.730;8.614;2023-02-28T00:55:12;3.50;;;2.17;;
27113;SDS011;14648;49.730;8.614;2023-02-28T00:57:37;1.77;;;1.67;;
27113;SDS011;14648;49.730;8.614;2023-02-28T01:00:03;2.10;;;2.00;;
27113;SDS011;14648;49.730;8.614;2023-02-28T01:02:31;2.40;;;2.20;;
27113;SDS011;14648;49.730;8.614;2023-02-28T01:04:56;3.33;;;2.30;;
27113;SDS011;14648;49.730;8.614;2023-02-28T01:07:22;2.70;;;1.97;;
27113;SDS011;14648;49.730;8.614;2023-02-28T01:09:48;6.83;;;2.57;;
27113;SDS011;14648;49.730;8.614;2023-02-28T01:12:14;2.63;;;2.07;;
27113;SDS011;14648;49.730;8.614;2023-02-28T01:14:40;2.57;;;2.37;;
27113;SDS011;14648;49.730;8.614;2023-02-28T01:17:06;3.17;;;2.33;;
27113;SDS011;14648;49.730;8.614;2023-02-28T01:19:32;1.93;;;1.80;;
27113;SDS011;14648;49.730;8.614;2023-02-28T01:22:00;3.20;;;2.70;;
27113;SDS011;14648;49.730;8.614;2023-02-28T01:24:28;4.13;;;2.37;;
27113;SDS011;14648;49.730;8.614;2023-02-28T01:26:53;3.07;;;2.17;;
27113;SDS011;14648;49.730;8.614;2023-02-28T01:29:19;4.30;;;2.50;;
27113;SDS011;14648;49.730;8.614;2023-02-28T01:31:45;8.10;;;2.50;;
27113;SDS011;14648;49.730;8.614;2023-02-28T01:34:10;3.00;;;2.70;;
27113;SDS011;14648;49.730;8.614;2023-02-28T01:36:36;2.63;;;2.43;;
27113;SDS011;14648;49.730;8.614;2023-02-28T01:39:02;2.17;;;2.07;;
27113;SDS011;14648;49.730;8.614;2023-02-28T01:41:29;2.07;;;1.90;;
27113;SDS011;14648;49.730;8.614;2023-02-28T01:43:59;1.90;;;1.73;;
27113;SDS011;14648;49.730;8.614;2023-02-28T01:46:32;2.73;;;2.00;;
27113;SDS011;14648;49.730;8.614;2023-02-28T01:49:07;3.90;;;2.10;;
27113;SDS011;14648;49.730;8.614;2023-02-28T01:52:12;4.57;;;4.03;;
27113;SDS011;14648;49.730;8.614;2023-02-28T01:54:31;2.97;;;2.50;;
27113;SDS011;14648;49.730;8.614;2023-02-28T01:57:07;3.93;;;1.93;;
27113;SDS011;14648;49.730;8.614;2023-02-28T01:59:50;2.30;;;2.00;;
27113;SDS011;14648;49.730;8.614;2023-02-28T02:02:25;2.07;;;1.97;;
27113;SDS011;14648;49.730;8.614;2023-02-28T02:04:59;1.87;;;1.77;;
27113;SDS011;14648;49.730;8.614;2023-02-28T02:07:37;2.37;;;2.17;;
27113;SDS011;14648;49.730;8.614;2023-02-28T02:10:19;4.53;;;2.30;;
27113;SDS011;14648;49.730;8.614;2023-02-28T02:16:23;2.10;;;1.90;;
27113;SDS011;14648;49.730;8.614;2023-02-28T02:25:11;2.30;;;1.83;;
27113;SDS011;14648;49.730;8.614;2023-02-28T02:36:16;2.70;;;2.03;;
27113;SDS011;14648;49.730;8.614;2023-02-28T02:38:50;2.50;;;1.80;;
27113;SDS011;14648;49.730;8.614;2023-02-28T02:41:34;2.17;;;1.83;;
27113;SDS011;14648;49.730;8.614;2023-02-28T02:44:21;1.70;;;1.60;;
27113;SDS011;14648;49.730;8.614;2023-02-28T02:47:10;4.90;;;2.30;;
27113;SDS011;14648;49.730;8.614;2023-02-28T02:49:40;2.83;;;2.10;;
27113;SDS011;14648;49.730;8.614;2023-02-28T02:52:22;4.00;;;1.93;;
27113;SDS011;14648;49.730;8.614;2023-02-28T02:55:02;1.60;;;1.37;;
27113;SDS011;14648;49.730;8.614;2023-02-28T02:57:35;2.20;;;2.10;;
27113;SDS011;14648;49.730;8.614;2023-02-28T03:00:17;3.20;;;2.10;;
27113;SDS011;14648;49.730;8.614;2023-02-28T03:02:49;3.63;;;1.90;;
27113;SDS011;14648;49.730;8.614;2023-02-28T03:05:19;9.70;;;2.13;;
27113;SDS011;14648;49.730;8.614;2023-02-28T03:07:51;1.80;;;1.70;;
27113;SDS011;14648;49.730;8.614;2023-02-28T03:13:19;2.03;;;1.93;;
27113;SDS011;14648;49.730;8.614;2023-02-28T03:19:05;2.80;;;2.60;;
27113;SDS011;14648;49.730;8.614;2023-02-28T03:21:59;2.50;;;2.30;;
27113;SDS011;14648;49.730;8.614;2023-02-28T03:28:03;2.37;;;2.27;;
27113;SDS011;14648;49.730;8.614;2023-02-28T03:30:45;2.00;;;1.90;;
27113;SDS011;14648;49.730;8.614;2023-02-28T03:33:23;4.50;;;2.00;;
27113;SDS011;14648;49.730;8.614;2023-02-28T03:35:59;1.90;;;1.80;;
27113;SDS011;14648;49.730;8.614;2023-02-28T03:41:23;2.93;;;2.63;;
27113;SDS011;14648;49.730;8.614;2023-02-28T03:44:02;2.30;;;2.10;;
27113;SDS011;14648;49.730;8.614;2023-02-28T03:46:40;3.37;;;2.37;;
27113;SDS011;14648;49.730;8.614;2023-02-28T03:49:18;2.63;;;2.10;;
27113;SDS011;14648;49.730;8.614;2023-02-28T03:51:50;2.17;;;2.00;;
27113;SDS011;14648;49.730;8.614;2023-02-28T03:54:18;2.70;;;2.03;;
27113;SDS011;14648;49.730;8.614;2023-02-28T03:57:02;2.43;;;2.20;;
27113;SDS011;14648;49.730;8.614;2023-02-28T03:59:42;4.80;;;2.23;;
27113;SDS011;14648;49.730;8.614;2023-02-28T04:02:12;3.90;;;1.80;;
27113;SDS011;14648;49.730;8.614;2023-02-28T04:04:38;2.40;;;2.20;;
27113;SDS011;14648;49.730;8.614;2023-02-28T04:07:05;3.23;;;2.47;;
27113;SDS011;14648;49.730;8.614;2023-02-28T04:09:33;2.77;;;2.50;;
27113;SDS011;14648;49.730;8.614;2023-02-28T04:11:59;4.80;;;2.23;;
27113;SDS011;14648;49.730;8.614;2023-02-28T04:14:25;1.80;;;1.70;;
27113;SDS011;14648;49.730;8.614;2023-02-28T04:16:51;2.10;;;1.90;;
27113;SDS011;14648;49.730;8.614;2023-02-28T04:19:17;2.77;;;2.37;;
27113;SDS011;14648;49.730;8.614;2023-02-28T04:21:45;2.30;;;2.13;;
27113;SDS011;14648;49.730;8.614;2023-02-28T04:24:14;2.90;;;2.70;;
27113;SDS011;14648;49.730;8.614;2023-02-28T04:26:46;2.40;;;2.30;;
27113;SDS011;14648;49.730;8.614;2023-02-28T04:29:19;5.07;;;2.50;;
27113;SDS011;14648;49.730;8.614;2023-02-28T04:31:53;2.90;;;1.83;;
27113;SDS011;14648;49.730;8.614;2023-02-28T04:34:22;2.10;;;1.73;;
27113;SDS011;14648;49.730;8.614;2023-02-28T04:36:49;2.37;;;2.27;;
27113;SDS011;14648;49.730;8.614;2023-02-28T04:39:16;2.90;;;2.50;;
27113;SDS011;14648;49.730;8.614;2023-02-28T04:41:43;2.60;;;2.30;;
27113;SDS011;14648;49.730;8.614;2023-02-28T04:44:10;2.90;;;2.70;;
27113;SDS011;14648;49.730;8.614;2023-02-28T04:46:36;2.30;;;2.20;;
27113;SDS011;14648;49.730;8.614;2023-02-28T04:49:02;9.23;;;2.27;;
27113;SDS011;14648;49.730;8.614;2023-02-28T04:51:28;4.33;;;3.27;;
27113;SDS011;14648;49.730;8.614;2023-02-28T04:53:54;2.83;;;2.63;;
27113;SDS011;14648;49.730;8.614;2023-02-28T04:56:20;3.13;;;1.90;;
27113;SDS011;14648;49.730;8.614;2023-02-28T04:58:46;1.87;;;1.77;;
27113;SDS011;14648;49.730;8.614;2023-02-28T05:01:16;2.53;;;2.33;;
27113;SDS011;14648;49.730;8.614;2023-02-28T05:03:46;1.80;;;1.20;;
27113;SDS011;14648;49.730;8.614;2023-02-28T05:06:12;5.33;;;2.50;;
27113;SDS011;14648;49.730;8.614;2023-02-28T05:08:38;2.33;;;2.13;;
27113;SDS011;14648;49.730;8.614;2023-02-28T05:11:06;3.03;;;2.70;;
27113;SDS011;14648;49.730;8.614;2023-02-28T05:13:42;4.10;;;2.20;;
27113;SDS011;14648;49.730;8.614;2023-02-28T05:16:08;2.70;;;2.50;;
27113;SDS011;14648;49.730;8.614;2023-02-28T05:18:34;2.80;;;2.53;;
27113;SDS011;14648;49.730;8.614;2023-02-28T05:21:00;3.07;;;2.80;;
27113;SDS011;14648;49.730;8.614;2023-02-28T05:23:28;2.10;;;2.00;;
27113;SDS011;14648;49.730;8.614;2023-02-28T05:25:54;2.47;;;2.27;;
27113;SDS011;14648;49.730;8.614;2023-02-28T05:28:21;1.93;;;1.77;;
27113;SDS011;14648;49.730;8.614;2023-02-28T05:30:46;2.70;;;2.50;;
27113;SDS011;14648;49.730;8.614;2023-02-28T05:33:12;2.80;;;2.50;;
27113;SDS011;14648;49.730;8.614;2023-02-28T05:35:39;2.20;;;2.00;;
27113;SDS011;14648;49.730;8.614;2023-02-28T05:38:07;3.33;;;3.03;;
27113;SDS011;14648;49.730;8.614;2023-02-28T05:40:45;5.80;;;3.10;;
27113;SDS011;14648;49.730;8.614;2023-02-28T05:43:13;2.87;;;2.57;;
27113;SDS011;14648;49.730;8.614;2023-02-28T05:45:39;3.33;;;3.07;;
27113;SDS011;14648;49.730;8.614;2023-02-28T05:48:04;2.97;;;2.50;;
27113;SDS011;14648;49.730;8.614;2023-02-28T05:50:30;3.53;;;2.90;;
27113;SDS011;14648;49.730;8.614;2023-02-28T05:52:56;4.40;;;2.93;;
27113;SDS011;14648;49.730;8.614;2023-02-28T05:55:22;3.87;;;3.57;;
27113;SDS011;14648;49.730;8.614;2023-02-28T05:57:47;3.07;;;2.83;;
27113;SDS011;14648;49.730;8.614;2023-02-28T06:00:13;2.43;;;2.23;;
27113;SDS011;14648;49.730;8.614;2023-02-28T06:02:40;3.43;;;3.10;;
27113;SDS011;14648;49.730;8.614;2023-02-28T06:05:13;4.20;;;3.80;;
27113;SDS011;14648;49.730;8.614;2023-02-28T06:07:41;6.33;;;2.33;;
27113;SDS011;14648;49.730;8.614;2023-02-28T06:10:08;3.13;;;2.80;;
27113;SDS011;14648;49.730;8.614;2023-02-28T06:12:37;3.47;;;2.90;;
27113;SDS011;14648;49.730;8.614;2023-02-28T06:15:03;1.60;;;1.50;;
27113;SDS011;14648;49.730;8.614;2023-02-28T06:17:29;3.17;;;2.93;;
27113;SDS011;14648;49.730;8.614;2023-02-28T06:19:55;2.60;;;2.20;;
27113;SDS011;14648;49.730;8.614;2023-02-28T06:22:21;2.50;;;2.30;;
27113;SDS011;14648;49.730;8.614;2023-02-28T06:24:47;2.87;;;2.67;;
27113;SDS011;14648;49.730;8.614;2023-02-28T06:27:12;2.37;;;2.17;;
27113;SDS011;14648;49.730;8.614;2023-02-28T06:29:38;3.40;;;2.73;;
27113;SDS011;14648;49.730;8.614;2023-02-28T06:32:07;2.67;;;2.30;;
27113;SDS011;14648;49.730;8.614;2023-02-28T06:34:33;3.20;;;2.23;;
27113;SDS011;14648;49.730;8.614;2023-02-28T06:36:59;2.30;;;2.13;;
27113;SDS011;14648;49.730;8.614;2023-02-28T06:39:27;2.40;;;2.20;;
27113;SDS011;14648;49.730;8.614;2023-02-28T06:41:54;2.70;;;2.50;;
27113;SDS011;14648;49.730;8.614;2023-02-28T06:44:20;2.67;;;2.47;;
27113;SDS011;14648;49.730;8.614;2023-02-28T06:46:46;4.07;;;2.10;;
27113;SDS011;14648;49.730;8.614;2023-02-28T06:49:13;4.93;;;3.13;;
27113;SDS011;14648;49.730;8.614;2023-02-28T06:51:40;4.33;;;2.60;;
27113;SDS011;14648;49.730;8.614;2023-02-28T06:54:10;3.03;;;2.33;;
27113;SDS011;14648;49.730;8.614;2023-02-28T06:56:36;2.97;;;2.70;;
27113;SDS011;14648;49.730;8.614;2023-02-28T06:59:02;3.13;;;1.90;;
27113;SDS011;14648;49.730;8.614;2023-02-28T07:01:29;6.50;;;2.80;;
27113;SDS011;14648;49.730;8.614;2023-02-28T07:03:56;2.83;;;2.50;;
27113;SDS011;14648;49.730;8.614;2023-02-28T07:06:22;3.00;;;2.80;;
27113;SDS011;14648;49.730;8.614;2023-02-28T07:08:49;2.00;;;1.90;;
27113;SDS011;14648;49.730;8.614;2023-02-28T07:11:17;2.40;;;2.17;;
27113;SDS011;14648;49.730;8.614;2023-02-28T07:13:43;5.27;;;3.07;;
27113;SDS011;14648;49.730;8.614;2023-02-28T07:16:09;3.40;;;3.10;;
27113;SDS011;14648;49.730;8.614;2023-02-28T07:18:36;2.40;;;2.30;;
27113;SDS011;14648;49.730;8.614;2023-02-28T07:21:04;2.20;;;2.00;;
27113;SDS011;14648;49.730;8.614;2023-02-28T07:23:32;3.93;;;2.40;;
27113;SDS011;14648;49.730;8.614;2023-02-28T07:25:58;5.17;;;3.47;;
27113;SDS011;14648;49.730;8.614;2023-02-28T07:28:24;2.70;;;1.63;;
27113;SDS011;14648;49.730;8.614;2023-02-28T07:30:50;3.13;;;1.97;;
27113;SDS011;14648;49.730;8.614;2023-02-28T07:33:16;2.43;;;2.20;;
27113;SDS011;14648;49.730;8.614;2023-02-28T07:35:42;3.77;;;2.30;;
27113;SDS011;14648;49.730;8.614;2023-02-28T07:38:08;7.63;;;3.53;;
27113;SDS011;14648;49.730;8.614;2023-02-28T07:40:38;3.00;;;2.70;;
27113;SDS011;14648;49.730;8.614;2023-02-28T07:43:04;5.10;;;2.53;;
27113;SDS011;14648;49.730;8.614;2023-02-28T07:45:30;6.87;;;2.47;;
27113;SDS011;14648;49.730;8.614;2023-02-28T07:47:59;4.73;;;2.97;;
27113;SDS011;14648;49.730;8.614;2023-02-28T07:50:25;3.70;;;3.10;;
27113;SDS011;14648;49.730;8.614;2023-02-28T07:52:55;3.17;;;2.80;;
27113;SDS011;14648;49.730;8.614;2023-02-28T07:55:23;4.77;;;2.30;;
27113;SDS011;14648;49.730;8.614;2023-02-28T07:57:48;2.50;;;2.30;;
27113;SDS011;14648;49.730;8.614;2023-02-28T08:00:14;2.83;;;2.53;;
27113;SDS011;14648;49.730;8.614;2023-02-28T08:02:40;2.70;;;1.80;;
27113;SDS011;14648;49.730;8.614;2023-02-28T08:05:06;3.20;;;2.63;;
27113;SDS011;14648;49.730;8.614;2023-02-28T08:07:33;2.80;;;2.60;;
27113;SDS011;14648;49.730;8.614;2023-02-28T08:09:59;3.63;;;2.60;;
27113;SDS011;14648;49.730;8.614;2023-02-28T08:12:25;3.47;;;2.70;;
27113;SDS011;14648;49.730;8.614;2023-02-28T08:14:50;3.80;;;2.27;;
27113;SDS011;14648;49.730;8.614;2023-02-28T08:17:16;2.40;;;2.20;;
27113;SDS011;14648;49.730;8.614;2023-02-28T08:19:44;1.80;;;1.70;;
27113;SDS011;14648;49.730;8.614;2023-02-28T08:22:11;1.70;;;1.60;;
27113;SDS011;14648;49.730;8.614;2023-02-28T08:24:37;4.23;;;2.83;;
27113;SDS011;14648;49.730;8.614;2023-02-28T08:27:03;5.47;;;2.83;;
27113;SDS011;14648;49.730;8.614;2023-02-28T08:29:28;2.90;;;2.70;;
27113;SDS011;14648;49.730;8.614;2023-02-28T08:31:55;4.00;;;3.07;;
27113;SDS011;14648;49.730;8.614;2023-02-28T08:34:20;4.63;;;2.50;;
27113;SDS011;14648;49.730;8.614;2023-02-28T08:36:48;6.13;;;3.10;;
27113;SDS011;14648;49.730;8.614;2023-02-28T08:39:13;3.83;;;3.50;;
27113;SDS011;14648;49.730;8.614;2023-02-28T08:41:39;5.10;;;3.77;;
27113;SDS011;14648;49.730;8.614;2023-02-28T08:44:05;4.87;;;2.90;;
27113;SDS011;14648;49.730;8.614;2023-02-28T08:46:30;2.83;;;2.63;;
27113;SDS011;14648;49.730;8.614;2023-02-28T08:48:56;3.80;;;2.87;;
27113;SDS011;14648;49.730;8.614;2023-02-28T08:51:26;3.47;;;3.27;;
27113;SDS011;14648;49.730;8.614;2023-02-28T08:53:53;4.37;;;3.87;;
27113;SDS011;14648;49.730;8.614;2023-02-28T08:56:22;3.03;;;2.83;;
27113;SDS011;14648;49.730;8.614;2023-02-28T08:58:48;4.23;;;3.20;;
27113;SDS011;14648;49.730;8.614;2023-02-28T09:01:16;4.47;;;2.57;;
27113;SDS011;14648;49.730;8.614;2023-02-28T09:03:49;6.70;;;4.43;;
27113;SDS011;14648;49.730;8.614;2023-02-28T09:06:16;5.13;;;3.00;;
27113;SDS011;14648;49.730;8.614;2023-02-28T09:08:43;4.77;;;4.20;;
27113;SDS011;14648;49.730;8.614;2023-02-28T09:11:11;2.30;;;1.50;;
27113;SDS011;14648;49.730;8.614;2023-02-28T09:13:38;8.63;;;3.43;;
27113;SDS011;14648;49.730;8.614;2023-02-28T09:16:05;5.67;;;3.67;;
27113;SDS011;14648;49.730;8.614;2023-02-28T09:18:34;6.00;;;4.23;;
27113;SDS011;14648;49.730;8.614;2023-02-28T09:21:07;3.60;;;3.40;;
27113;SDS011;14648;49.730;8.614;2023-02-28T09:23:38;6.00;;;3.93;;
27113;SDS011;14648;49.730;8.614;2023-02-28T09:26:04;5.27;;;4.77;;
27113;SDS011;14648;49.730;8.614;2023-02-28T09:28:31;3.40;;;3.00;;
27113;SDS011;14648;49.730;8.614;2023-02-28T09:30:59;4.27;;;3.90;;
27113;SDS011;14648;49.730;8.614;2023-02-28T09:33:25;6.27;;;4.40;;
27113;SDS011;14648;49.730;8.614;2023-02-28T09:35:56;8.83;;;2.80;;
27113;SDS011;14648;49.730;8.614;2023-02-28T09:38:26;4.33;;;3.50;;
27113;SDS011;14648;49.730;8.614;2023-02-28T09:40:53;2.70;;;2.50;;
27113;SDS011;14648;49.730;8.614;2023-02-28T09:43:27;4.80;;;2.80;;
27113;SDS011;14648;49.730;8.614;2023-02-28T09:48:53;6.13;;;4.43;;
27113;SDS011;14648;49.730;8.614;2023-02-28T09:51:34;4.67;;;3.50;;
27113;SDS011;14648;49.730;8.614;2023-02-28T09:54:24;7.93;;;4.10;;
27113;SDS011;14648;49.730;8.614;2023-02-28T10:00:01;4.93;;;4.10;;
27113;SDS011;14648;49.730;8.614;2023-02-28T10:02:53;4.17;;;3.50;;
27113;SDS011;14648;49.730;8.614;2023-02-28T10:05:50;6.37;;;4.60;;
27113;SDS011;14648;49.730;8.614;2023-02-28T10:11:26;3.90;;;2.53;;
27113;SDS011;14648;49.730;8.614;2023-02-28T10:16:54;9.77;;;4.87;;
27113;SDS011;14648;49.730;8.614;2023-02-28T10:19:30;5.80;;;4.07;;
27113;SDS011;14648;49.730;8.614;2023-02-28T10:25:22;4.77;;;4.00;;
27113;SDS011;14648;49.730;8.614;2023-02-28T10:27:54;6.30;;;5.47;;
27113;SDS011;14648;49.730;8.614;2023-02-28T10:30:37;6.67;;;4.70;;
27113;SDS011;14648;49.730;8.614;2023-02-28T10:33:15;6.83;;;3.47;;
27113;SDS011;14648;49.730;8.614;2023-02-28T10:35:54;6.80;;;3.97;;
27113;SDS011;14648;49.730;8.614;2023-02-28T10:38:21;4.30;;;3.90;;
27113;SDS011;14648;49.730;8.614;2023-02-28T10:40:51;7.20;;;4.63;;
27113;SDS011;14648;49.730;8.614;2023-02-28T10:43:29;11.63;;;5.23;;
27113;SDS011;14648;49.730;8.614;2023-02-28T10:45:56;4.70;;;4.23;;
27113;SDS011;14648;49.730;8.614;2023-02-28T10:48:32;4.20;;;3.77;;
27113;SDS011;14648;49.730;8.614;2023-02-28T10:51:04;5.07;;;4.53;;
27113;SDS011;14648;49.730;8.614;2023-02-28T10:56:19;5.67;;;4.87;;
27113;SDS011;14648;49.730;8.614;2023-02-28T11:03:55;7.80;;;5.27;;
27113;SDS011;14648;49.730;8.614;2023-02-28T11:06:26;8.17;;;4.97;;
27113;SDS011;14648;49.730;8.614;2023-02-28T11:09:06;10.30;;;6.80;;
27113;SDS011;14648;49.730;8.614;2023-02-28T11:11:56;7.23;;;5.90;;
27113;SDS011;14648;49.730;8.614;2023-02-28T11:14:26;7.47;;;5.20;;
27113;SDS011;14648;49.730;8.614;2023-02-28T11:16:56;5.10;;;4.20;;
27113;SDS011;14648;49.730;8.614;2023-02-28T11:19:38;6.87;;;6.33;;
27113;SDS011;14648;49.730;8.614;2023-02-28T11:22:10;6.17;;;5.23;;
27113;SDS011;14648;49.730;8.614;2023-02-28T11:24:44;6.67;;;5.23;;
27113;SDS011;14648;49.730;8.614;2023-02-28T11:29:57;9.07;;;6.30;;
27113;SDS011;14648;49.730;8.614;2023-02-28T11:32:27;5.50;;;5.00;;
27113;SDS011;14648;49.730;8.614;2023-02-28T11:37:37;7.20;;;5.50;;
27113;SDS011;14648;49.730;8.614;2023-02-28T11:40:05;6.73;;;6.07;;
27113;SDS011;14648;49.730;8.614;2023-02-28T11:45:38;6.50;;;4.90;;
27113;SDS011;14648;49.730;8.614;2023-02-28T11:48:25;8.03;;;5.67;;
27113;SDS011;14648;49.730;8.614;2023-02-28T11:53:43;6.20;;;5.60;;
27113;SDS011;14648;49.730;8.614;2023-02-28T11:56:44;7.30;;;4.30;;
27113;SDS011;14648;49.730;8.614;2023-02-28T12:07:33;6.73;;;4.80;;
27113;SDS011;14648;49.730;8.614;2023-02-28T12:10:21;6.40;;;5.80;;
27113;SDS011;14648;49.730;8.614;2023-02-28T12:13:26;7.07;;;4.10;;
27113;SDS011;14648;49.730;8.614;2023-02-28T12:16:38;4.23;;;2.40;;
27113;SDS011;14648;49.730;8.614;2023-02-28T12:25:15;4.93;;;4.43;;
27113;SDS011;14648;49.730;8.614;2023-02-28T12:27:50;6.33;;;5.03;;
27113;SDS011;14648;49.730;8.614;2023-02-28T12:30:24;6.23;;;4.50;;
27113;SDS011;14648;49.730;8.614;2023-02-28T12:33:05;7.07;;;5.50;;
27113;SDS011;14648;49.730;8.614;2023-02-28T12:38:21;5.87;;;5.27;;
27113;SDS011;14648;49.730;8.614;2023-02-28T12:40:55;5.10;;;4.60;;
27113;SDS011;14648;49.730;8.614;2023-02-28T12:43:36;8.33;;;6.47;;
27113;SDS011;14648;49.730;8.614;2023-02-28T12:46:12;7.07;;;4.90;;
27113;SDS011;14648;49.730;8.614;2023-02-28T12:48:49;7.63;;;5.57;;
27113;SDS011;14648;49.730;8.614;2023-02-28T12:51:24;14.27;;;9.47;;
27113;SDS011;14648;49.730;8.614;2023-02-28T12:53:59;5.60;;;5.10;;
27113;SDS011;14648;49.730;8.614;2023-02-28T12:59:49;5.13;;;4.63;;
27113;SDS011;14648;49.730;8.614;2023-02-28T13:02:39;14.63;;;5.87;;
27113;SDS011;14648;49.730;8.614;2023-02-28T13:11:44;4.67;;;4.27;;
27113;SDS011;14648;49.730;8.614;2023-02-28T13:19:39;7.30;;;6.60;;
27113;SDS011;14648;49.730;8.614;2023-02-28T13:23:16;5.73;;;5.13;;
27113;SDS011;14648;49.730;8.614;2023-02-28T13:28:55;7.33;;;5.80;;
27113;SDS011;14648;49.730;8.614;2023-02-28T13:31:23;6.07;;;4.30;;
27113;SDS011;14648;49.730;8.614;2023-02-28T13:36:30;4.50;;;3.97;;
27113;SDS011;14648;49.730;8.614;2023-02-28T13:39:01;9.53;;;6.70;;
27113;SDS011;14648;49.730;8.614;2023-02-28T13:41:48;10.33;;;6.07;;
27113;SDS011;14648;49.730;8.614;2023-02-28T14:06:57;13.73;;;7.07;;
27113;SDS011;14648;49.730;8.614;2023-02-28T14:09:25;9.53;;;6.47;;
27113;SDS011;14648;49.730;8.614;2023-02-28T14:18:14;8.03;;;6.00;;
27113;SDS011;14648;49.730;8.614;2023-02-28T14:20:41;8.30;;;5.70;;
27113;SDS011;14648;49.730;8.614;2023-02-28T14:28:50;6.80;;;6.10;;
27113;SDS011;14648;49.730;8.614;2023-02-28T14:31:47;8.57;;;6.37;;
27113;SDS011;14648;49.730;8.614;2023-02-28T14:37:29;7.70;;;5.87;;
27113;SDS011;14648;49.730;8.614;2023-02-28T14:39:58;8.43;;;6.20;;
27113;SDS011;14648;49.730;8.614;2023-02-28T14:42:36;8.20;;;6.37;;
27113;SDS011;14648;49.730;8.614;2023-02-28T14:45:21;8.00;;;6.00;;
27113;SDS011;14648;49.730;8.614;2023-02-28T14:47:48;9.40;;;5.40;;
27113;SDS011;14648;49.730;8.614;2023-02-28T14:50:22;11.13;;;6.57;;
27113;SDS011;14648;49.730;8.614;2023-02-28T14:53:02;7.10;;;5.80;;
27113;SDS011;14648;49.730;8.614;2023-02-28T14:55:30;6.70;;;5.80;;
27113;SDS011;14648;49.730;8.614;2023-02-28T14:58:00;7.27;;;6.50;;
27113;SDS011;14648;49.730;8.614;2023-02-28T15:00:53;11.50;;;8.23;;
27113;SDS011;14648;49.730;8.614;2023-02-28T15:03:21;7.40;;;5.90;;
27113;SDS011;14648;49.730;8.614;2023-02-28T15:06:05;6.77;;;5.53;;
27113;SDS011;14648;49.730;8.614;2023-02-28T15:08:45;8.43;;;5.80;;
27113;SDS011;14648;49.730;8.614;2023-02-28T15:11:15;6.37;;;5.77;;
27113;SDS011;14648;49.730;8.614;2023-02-28T15:13:48;7.93;;;5.63;;
27113;SDS011;14648;49.730;8.614;2023-02-28T15:16:38;7.43;;;5.13;;
27113;SDS011;14648;49.730;8.614;2023-02-28T15:19:19;9.77;;;5.70;;
27113;SDS011;14648;49.730;8.614;2023-02-28T15:21:54;7.90;;;5.60;;
27113;SDS011;14648;49.730;8.614;2023-02-28T15:24:29;6.83;;;5.60;;
27113;SDS011;14648;49.730;8.614;2023-02-28T15:27:02;11.10;;;6.50;;
27113;SDS011;14648;49.730;8.614;2023-02-28T15:29:42;8.23;;;5.50;;
27113;SDS011;14648;49.730;8.614;2023-02-28T15:35:17;6.37;;;5.27;;
27113;SDS011;14648;49.730;8.614;2023-02-28T15:37:53;6.93;;;5.87;;
27113;SDS011;14648;49.730;8.614;2023-02-28T15:40:36;8.10;;;5.60;;
27113;SDS011;14648;49.730;8.614;2023-02-28T15:43:28;7.60;;;5.30;;
27113;SDS011;14648;49.730;8.614;2023-02-28T15:51:33;7.87;;;5.60;;
27113;SDS011;14648;49.730;8.614;2023-02-28T15:54:04;8.47;;;6.27;;
27113;SDS011;14648;49.730;8.614;2023-02-28T15:56:33;8.90;;;6.07;;
27113;SDS011;14648;49.730;8.614;2023-02-28T15:59:12;9.63;;;5.80;;
27113;SDS011;14648;49.730;8.614;2023-02-28T16:01:45;7.70;;;4.90;;
27113;SDS011;14648;49.730;8.614;2023-02-28T16:04:18;5.30;;;4.90;;
27113;SDS011;14648;49.730;8.614;2023-02-28T16:07:11;9.23;;;6.53;;
27113;SDS011;14648;49.730;8.614;2023-02-28T16:09:37;9.03;;;5.43;;
27113;SDS011;14648;49.730;8.614;2023-02-28T16:12:03;9.23;;;7.40;;
27113;SDS011;14648;49.730;8.614;2023-02-28T16:14:30;6.23;;;5.23;;
27113;SDS011;14648;49.730;8.614;2023-02-28T16:17:02;10.00;;;5.70;;
27113;SDS011;14648;49.730;8.614;2023-02-28T16:19:30;8.03;;;5.80;;
27113;SDS011;14648;49.730;8.614;2023-02-28T16:21:57;7.90;;;6.10;;
27113;SDS011;14648;49.730;8.614;2023-02-28T16:24:23;6.80;;;5.47;;
27113;SDS011;14648;49.730;8.614;2023-02-28T16:26:50;6.80;;;6.10;;
27113;SDS011;14648;49.730;8.614;2023-02-28T16:29:22;9.30;;;6.10;;
27113;SDS011;14648;49.730;8.614;2023-02-28T16:31:55;6.53;;;5.10;;
27113;SDS011;14648;49.730;8.614;2023-02-28T16:34:21;12.07;;;8.57;;
27113;SDS011;14648;49.730;8.614;2023-02-28T16:36:47;17.87;;;10.80;;
27113;SDS011;14648;49.730;8.614;2023-02-28T16:39:14;9.10;;;7.00;;
27113;SDS011;14648;49.730;8.614;2023-02-28T16:41:43;17.07;;;9.53;;
27113;SDS011;14648;49.730;8.614;2023-02-28T16:44:13;13.53;;;9.23;;
27113;SDS011;14648;49.730;8.614;2023-02-28T16:46:52;10.10;;;6.93;;
27113;SDS011;14648;49.730;8.614;2023-02-28T16:49:18;11.90;;;7.07;;
27113;SDS011;14648;49.730;8.614;2023-02-28T16:51:44;14.80;;;8.40;;
27113;SDS011;14648;49.730;8.614;2023-02-28T16:54:09;24.63;;;12.33;;
27113;SDS011;14648;49.730;8.614;2023-02-28T16:56:35;26.13;;;11.23;;
27113;SDS011;14648;49.730;8.614;2023-02-28T16:59:03;22.23;;;12.03;;
27113;SDS011;14648;49.730;8.614;2023-02-28T17:01:29;18.93;;;10.80;;
27113;SDS011;14648;49.730;8.614;2023-02-28T17:03:55;22.80;;;13.07;;
27113;SDS011;14648;49.730;8.614;2023-02-28T17:06:28;17.10;;;10.10;;
27113;SDS011;14648;49.730;8.614;2023-02-28T17:08:55;12.50;;;6.83;;
27113;SDS011;14648;49.730;8.614;2023-02-28T17:11:23;10.07;;;6.20;;
27113;SDS011;14648;49.730;8.614;2023-02-28T17:13:49;10.73;;;6.70;;
27113;SDS011;14648;49.730;8.614;2023-02-28T17:16:23;9.20;;;6.33;;
27113;SDS011;14648;49.730;8.614;2023-02-28T17:18:58;12.37;;;7.00;;
27113;SDS011;14648;49.730;8.614;2023-02-28T17:21:30;11.30;;;6.70;;
27113;SDS011;14648;49.730;8.614;2023-02-28T17:23:57;11.40;;;9.20;;
27113;SDS011;14648;49.730;8.614;2023-02-28T17:26:23;14.93;;;9.97;;
27113;SDS011;14648;49.730;8.614;2023-02-28T17:28:53;10.43;;;8.23;;
27113;SDS011;14648;49.730;8.614;2023-02-28T17:31:21;13.00;;;8.35;;
27113;SDS011;14648;49.730;8.614;2023-02-28T17:33:47;5.20;;;4.63;;
27113;SDS011;14648;49.730;8.614;2023-02-28T17:36:14;6.67;;;5.63;;
27113;SDS011;14648;49.730;8.614;2023-02-28T17:38:43;7.00;;;5.03;;